sensor_id;sensor_type;location;lat;lon;timestamp;temperature;humidity
19561;DHT22;9927;47.792;10.616;2023-03-23T04:01:53;6.70;99.90
19561;DHT22;9927;47.792;10.616;2023-03-23T04:04:21;6.60;99.90
19561;DHT22;9927;47.792;10.616;2023-03-23T04:06:48;6.60;99.90
19561;DHT22;9927;47.792;10.616;2023-03-23T04:09:14;6.60;99.90
19561;DHT22;9927;47.792;10.616;2023-03-23T04:11:40;6.70;99.90
19561;DHT22;9927;47.792;10.616;2023-03-23T04:14:07;6.70;99.90
19561;DHT22;9927;47.792;10.616;2023-03-23T04:16:33;6.70;99.90
19561;DHT22;9927;47.792;10.616;2023-03-23T04:19:01;6.80;99.90
19561;DHT22;9927;47.792;10.616;2023-03-23T04:21:28;6.90;99.90
19561;DHT22;9927;47.792;10.616;2023-03-23T04:23:57;6.90;99.90
19561;DHT22;9927;47.792;10.616;2023-03-23T04:26:27;7.00;99.90
19561;DHT22;9927;47.792;10.616;2023-03-23T04:28:55;7.10;99.90
19561;DHT22;9927;47.792;10.616;2023-03-23T04:31:22;7.10;99.90
19561;DHT22;9927;47.792;10.616;2023-03-23T04:33:51;7.20;99.90
19561;DHT22;9927;47.792;10.616;2023-03-23T04:36:20;7.20;99.90
19561;DHT22;9927;47.792;10.616;2023-03-23T04:38:48;7.20;99.90
19561;DHT22;9927;47.792;10.616;2023-03-23T04:41:16;7.30;99.90
19561;DHT22;9927;47.792;10.616;2023-03-23T04:43:42;7.20;99.90
19561;DHT22;9927;47.792;10.616;2023-03-23T04:46:08;7.20;99.90
19561;DHT22;9927;47.792;10.616;2023-03-23T04:48:35;7.20;99.90
19561;DHT22;9927;47.792;10.616;2023-03-23T04:51:02;7.20;99.90
19561;DHT22;9927;47.792;10.616;2023-03-23T04:53:30;7.30;99.90
19561;DHT22;9927;47.792;10.616;2023-03-23T04:55:56;7.30;99.90
19561;DHT22;9927;47.792;10.616;2023-03-23T04:58:23;7.30;99.90
19561;DHT22;9927;47.792;10.616;2023-03-23T05:00:50;7.50;99.90
19561;DHT22;9927;47.792;10.616;2023-03-23T05:03:18;7.50;99.90
19561;DHT22;9927;47.792;10.616;2023-03-23T05:05:45;7.50;99.90
19561;DHT22;9927;47.792;10.616;2023-03-23T05:08:19;7.60;99.90
19561;DHT22;9927;47.792;10.616;2023-03-23T05:10:53;7.60;99.90
19561;DHT22;9927;47.792;10.616;2023-03-23T05:13:19;7.60;99.90
19561;DHT22;9927;47.792;10.616;2023-03-23T05:15:46;7.70;99.90
19561;DHT22;9927;47.792;10.616;2023-03-23T05:18:12;7.70;99.90
19561;DHT22;9927;47.792;10.616;2023-03-23T05:20:38;7.80;99.90
19561;DHT22;9927;47.792;10.616;2023-03-23T05:23:05;7.80;99.90
19561;DHT22;9927;47.792;10.616;2023-03-23T05:25:31;7.80;99.90
19561;DHT22;9927;47.792;10.616;2023-03-23T05:28:03;7.90;99.90
19561;DHT22;9927;47.792;10.616;2023-03-23T05:30:29;7.90;99.90
19561;DHT22;9927;47.792;10.616;2023-03-23T05:32:55;7.90;99.90
19561;DHT22;9927;47.792;10.616;2023-03-23T05:35:21;8.00;99.90
19561;DHT22;9927;47.792;10.616;2023-03-23T05:37:48;8.00;99.90
19561;DHT22;9927;47.792;10.616;2023-03-23T05:40:14;8.00;99.90
19561;DHT22;9927;47.792;10.616;2023-03-23T05:42:41;8.00;99.90
19561;DHT22;9927;47.792;10.616;2023-03-23T05:45:09;8.00;99.90
19561;DHT22;9927;47.792;10.616;2023-03-23T05:47:37;8.00;99.90
19561;DHT22;9927;47.792;10.616;2023-03-23T05:50:05;8.00;99.90
19561;DHT22;9927;47.792;10.616;2023-03-23T05:52:33;8.10;99.90
19561;DHT22;9927;47.792;10.616;2023-03-23T05:55:01;8.00;99.90
19561;DHT22;9927;47.792;10.616;2023-03-23T05:57:29;8.00;99.90
19561;DHT22;9927;47.792;10.616;2023-03-23T05:59:56;7.70;99.90
19561;DHT22;9927;47.792;10.616;2023-03-23T06:02:24;7.90;99.90
19561;DHT22;9927;47.792;10.616;2023-03-23T06:04:51;8.00;99.90
19561;DHT22;9927;47.792;10.616;2023-03-23T06:07:25;8.10;99.90
19561;DHT22;9927;47.792;10.616;2023-03-23T06:09:52;8.30;99.90
19561;DHT22;9927;47.792;10.616;2023-03-23T06:12:19;8.30;99.90
19561;DHT22;9927;47.792;10.616;2023-03-23T06:14:48;8.40;99.90
19561;DHT22;9927;47.792;10.616;2023-03-23T06:17:15;8.50;99.90
19561;DHT22;9927;47.792;10.616;2023-03-23T06:19:43;8.60;99.90
19561;DHT22;9927;47.792;10.616;2023-03-23T06:22:11;8.80;99.90
19561;DHT22;9927;47.792;10.616;2023-03-23T06:24:37;8.90;99.90
19561;DHT22;9927;47.792;10.616;2023-03-23T06:27:04;9.00;99.90
19561;DHT22;9927;47.792;10.616;2023-03-23T06:29:30;9.20;99.90
19561;DHT22;9927;47.792;10.616;2023-03-23T06:31:59;9.40;99.90
19561;DHT22;9927;47.792;10.616;2023-03-23T06:34:26;9.50;99.90
19561;DHT22;9927;47.792;10.616;2023-03-23T06:36:52;9.60;99.90
19561;DHT22;9927;47.792;10.616;2023-03-23T06:39:19;9.70;99.90
19561;DHT22;9927;47.792;10.616;2023-03-23T06:41:45;10.00;99.90
19561;DHT22;9927;47.792;10.616;2023-03-23T06:44:11;10.10;99.90
19561;DHT22;9927;47.792;10.616;2023-03-23T06:46:40;10.10;99.90
19561;DHT22;9927;47.792;10.616;2023-03-23T06:49:07;10.30;99.90
19561;DHT22;9927;47.792;10.616;2023-03-23T06:51:33;10.50;99.90
19561;DHT22;9927;47.792;10.616;2023-03-23T06:54:00;10.50;99.90
19561;DHT22;9927;47.792;10.616;2023-03-23T06:56:26;10.60;99.90
19561;DHT22;9927;47.792;10.616;2023-03-23T06:58:52;10.70;99.90
19561;DHT22;9927;47.792;10.616;2023-03-23T07:01:19;11.00;99.90
19561;DHT22;9927;47.792;10.616;2023-03-23T07:03:45;11.00;99.90
19561;DHT22;9927;47.792;10.616;2023-03-23T07:06:11;11.20;99.90
19561;DHT22;9927;47.792;10.616;2023-03-23T07:08:38;11.20;99.90
19561;DHT22;9927;47.792;10.616;2023-03-23T07:11:05;11.40;99.90
19561;DHT22;9927;47.792;10.616;2023-03-23T07:13:31;11.50;99.90
19561;DHT22;9927;47.792;10.616;2023-03-23T07:15:57;11.70;99.90
19561;DHT22;9927;47.792;10.616;2023-03-23T07:18:24;11.90;99.90
19561;DHT22;9927;47.792;10.616;2023-03-23T07:20:51;12.30;99.90
19561;DHT22;9927;47.792;10.616;2023-03-23T07:23:18;12.30;99.90
19561;DHT22;9927;47.792;10.616;2023-03-23T07:25:44;12.60;99.90
19561;DHT22;9927;47.792;10.616;2023-03-23T07:28:12;12.80;99.90
19561;DHT22;9927;47.792;10.616;2023-03-23T07:30:38;13.10;99.90
19561;DHT22;9927;47.792;10.616;2023-03-23T07:33:06;13.20;99.90
19561;DHT22;9927;47.792;10.616;2023-03-23T07:35:32;13.30;99.90
19561;DHT22;9927;47.792;10.616;2023-03-23T07:37:58;13.30;99.90
19561;DHT22;9927;47.792;10.616;2023-03-23T07:42:54;13.40;99.90
19561;DHT22;9927;47.792;10.616;2023-03-23T07:45:21;13.50;99.90
19561;DHT22;9927;47.792;10.616;2023-03-23T07:47:47;13.60;99.90
19561;DHT22;9927;47.792;10.616;2023-03-23T07:50:14;13.60;99.90
19561;DHT22;9927;47.792;10.616;2023-03-23T07:52:40;13.60;99.90
19561;DHT22;9927;47.792;10.616;2023-03-23T07:55:11;13.50;99.90
19561;DHT22;9927;47.792;10.616;2023-03-23T07:57:44;13.60;99.90
19561;DHT22;9927;47.792;10.616;2023-03-23T08:00:11;13.70;99.90
19561;DHT22;9927;47.792;10.616;2023-03-23T08:02:50;13.80;99.90
19561;DHT22;9927;47.792;10.616;2023-03-23T08:05:17;13.90;99.90
19561;DHT22;9927;47.792;10.616;2023-03-23T08:07:46;14.00;99.90
19561;DHT22;9927;47.792;10.616;2023-03-23T08:10:14;14.30;99.90
19561;DHT22;9927;47.792;10.616;2023-03-23T08:12:42;14.40;99.90
19561;DHT22;9927;47.792;10.616;2023-03-23T08:15:10;14.60;99.90
19561;DHT22;9927;47.792;10.616;2023-03-23T08:17:39;14.80;99.90
19561;DHT22;9927;47.792;10.616;2023-03-23T08:20:07;14.90;99.90
19561;DHT22;9927;47.792;10.616;2023-03-23T08:22:37;15.00;99.90
19561;DHT22;9927;47.792;10.616;2023-03-23T08:25:05;15.10;99.90
19561;DHT22;9927;47.792;10.616;2023-03-23T08:27:32;15.00;99.90
19561;DHT22;9927;47.792;10.616;2023-03-23T08:29:59;15.20;99.90
19561;DHT22;9927;47.792;10.616;2023-03-23T08:32:25;15.40;99.90
19561;DHT22;9927;47.792;10.616;2023-03-23T08:34:52;15.60;99.90
19561;DHT22;9927;47.792;10.616;2023-03-23T08:37:18;15.50;99.90
19561;DHT22;9927;47.792;10.616;2023-03-23T08:39:45;15.50;99.90
19561;DHT22;9927;47.792;10.616;2023-03-23T08:42:11;15.70;99.90
19561;DHT22;9927;47.792;10.616;2023-03-23T08:44:37;15.80;99.90
19561;DHT22;9927;47.792;10.616;2023-03-23T08:47:04;16.00;99.90
19561;DHT22;9927;47.792;10.616;2023-03-23T08:49:31;16.00;99.90
19561;DHT22;9927;47.792;10.616;2023-03-23T08:51:59;16.30;99.90
19561;DHT22;9927;47.792;10.616;2023-03-23T08:54:28;16.30;99.90
19561;DHT22;9927;47.792;10.616;2023-03-23T08:56:59;16.30;99.90
19561;DHT22;9927;47.792;10.616;2023-03-23T08:59:26;16.20;99.90
19561;DHT22;9927;47.792;10.616;2023-03-23T09:01:53;16.30;99.40
19561;DHT22;9927;47.792;10.616;2023-03-23T09:04:20;16.30;99.90
19561;DHT22;9927;47.792;10.616;2023-03-23T09:06:47;16.40;99.90
19561;DHT22;9927;47.792;10.616;2023-03-23T09:09:13;16.60;99.90
19561;DHT22;9927;47.792;10.616;2023-03-23T09:11:39;16.80;99.90
19561;DHT22;9927;47.792;10.616;2023-03-23T09:14:07;17.00;99.90
19561;DHT22;9927;47.792;10.616;2023-03-23T09:16:34;17.20;99.90
19561;DHT22;9927;47.792;10.616;2023-03-23T09:19:01;17.60;99.90
19561;DHT22;9927;47.792;10.616;2023-03-23T09:21:28;18.00;99.90
19561;DHT22;9927;47.792;10.616;2023-03-23T09:23:55;18.10;99.60
19561;DHT22;9927;47.792;10.616;2023-03-23T09:26:26;18.20;99.90
19561;DHT22;9927;47.792;10.616;2023-03-23T09:28:53;18.50;98.70
19561;DHT22;9927;47.792;10.616;2023-03-23T09:31:19;18.90;97.00
19561;DHT22;9927;47.792;10.616;2023-03-23T09:33:46;18.90;96.90
19561;DHT22;9927;47.792;10.616;2023-03-23T09:36:12;19.10;96.40
19561;DHT22;9927;47.792;10.616;2023-03-23T09:38:40;19.30;96.60
19561;DHT22;9927;47.792;10.616;2023-03-23T09:49:15;19.20;95.60
19561;DHT22;9927;47.792;10.616;2023-03-23T09:54:27;19.70;95.10
19561;DHT22;9927;47.792;10.616;2023-03-23T09:56:55;20.00;93.20
19561;DHT22;9927;47.792;10.616;2023-03-23T09:59:34;19.90;92.70
19561;DHT22;9927;47.792;10.616;2023-03-23T10:02:14;19.60;92.40
19561;DHT22;9927;47.792;10.616;2023-03-23T10:04:48;19.30;90.40
19561;DHT22;9927;47.792;10.616;2023-03-23T10:07:20;18.90;90.90
19561;DHT22;9927;47.792;10.616;2023-03-23T10:09:53;18.90;91.20
19561;DHT22;9927;47.792;10.616;2023-03-23T10:12:42;18.10;91.30
19561;DHT22;9927;47.792;10.616;2023-03-23T10:15:15;17.90;94.10
19561;DHT22;9927;47.792;10.616;2023-03-23T10:17:57;17.90;93.50
19561;DHT22;9927;47.792;10.616;2023-03-23T10:29:17;17.90;94.00
19561;DHT22;9927;47.792;10.616;2023-03-23T10:31:57;18.30;92.00
19561;DHT22;9927;47.792;10.616;2023-03-23T10:37:08;18.30;91.40
19561;DHT22;9927;47.792;10.616;2023-03-23T10:39:57;18.30;92.60
19561;DHT22;9927;47.792;10.616;2023-03-23T10:42:34;18.60;92.30
19561;DHT22;9927;47.792;10.616;2023-03-23T10:45:22;18.70;93.10
19561;DHT22;9927;47.792;10.616;2023-03-23T10:50:37;18.40;89.80
19561;DHT22;9927;47.792;10.616;2023-03-23T10:53:21;18.40;90.30
19561;DHT22;9927;47.792;10.616;2023-03-23T10:55:49;18.20;90.90
19561;DHT22;9927;47.792;10.616;2023-03-23T10:58:42;18.20;91.30
19561;DHT22;9927;47.792;10.616;2023-03-23T11:01:11;18.60;91.40
19561;DHT22;9927;47.792;10.616;2023-03-23T11:06:09;18.70;91.10
19561;DHT22;9927;47.792;10.616;2023-03-23T11:08:47;19.50;90.90
19561;DHT22;9927;47.792;10.616;2023-03-23T11:11:27;19.70;86.10
19561;DHT22;9927;47.792;10.616;2023-03-23T11:14:03;19.80;90.00
19561;DHT22;9927;47.792;10.616;2023-03-23T11:16:43;19.60;85.90
19561;DHT22;9927;47.792;10.616;2023-03-23T11:19:26;19.10;83.70
19561;DHT22;9927;47.792;10.616;2023-03-23T11:22:06;19.10;86.20
19561;DHT22;9927;47.792;10.616;2023-03-23T11:24:43;19.30;86.70
19561;DHT22;9927;47.792;10.616;2023-03-23T11:27:10;19.30;82.70
19561;DHT22;9927;47.792;10.616;2023-03-23T11:29:54;19.30;82.90
19561;DHT22;9927;47.792;10.616;2023-03-23T11:32:27;19.20;81.90
19561;DHT22;9927;47.792;10.616;2023-03-23T11:35:05;19.10;81.00
19561;DHT22;9927;47.792;10.616;2023-03-23T11:37:41;18.50;80.60
19561;DHT22;9927;47.792;10.616;2023-03-23T11:42:45;18.70;80.50
19561;DHT22;9927;47.792;10.616;2023-03-23T11:45:48;18.50;83.70
19561;DHT22;9927;47.792;10.616;2023-03-23T11:48:38;18.60;86.70
19561;DHT22;9927;47.792;10.616;2023-03-23T11:53:57;18.40;84.80
19561;DHT22;9927;47.792;10.616;2023-03-23T11:56:33;18.60;81.80
19561;DHT22;9927;47.792;10.616;2023-03-23T11:59:00;18.70;81.70
19561;DHT22;9927;47.792;10.616;2023-03-23T12:01:37;18.50;80.50
19561;DHT22;9927;47.792;10.616;2023-03-23T12:12:18;18.40;81.10
19561;DHT22;9927;47.792;10.616;2023-03-23T12:15:47;18.40;79.30
19561;DHT22;9927;47.792;10.616;2023-03-23T12:23:25;19.10;76.00
19561;DHT22;9927;47.792;10.616;2023-03-23T12:25:55;18.80;77.50
19561;DHT22;9927;47.792;10.616;2023-03-23T12:28:45;18.60;77.80
19561;DHT22;9927;47.792;10.616;2023-03-23T12:31:25;18.90;75.70
19561;DHT22;9927;47.792;10.616;2023-03-23T12:34:10;19.00;77.90
19561;DHT22;9927;47.792;10.616;2023-03-23T12:37:02;18.90;80.50
19561;DHT22;9927;47.792;10.616;2023-03-23T12:45:26;18.90;82.20
19561;DHT22;9927;47.792;10.616;2023-03-23T12:48:02;18.80;81.70
19561;DHT22;9927;47.792;10.616;2023-03-23T12:50:44;19.10;80.00
19561;DHT22;9927;47.792;10.616;2023-03-23T12:59:28;19.40;81.30
19561;DHT22;9927;47.792;10.616;2023-03-23T13:02:01;19.20;79.70
19561;DHT22;9927;47.792;10.616;2023-03-23T13:04:37;19.40;79.10
19561;DHT22;9927;47.792;10.616;2023-03-23T13:07:08;19.60;80.80
19561;DHT22;9927;47.792;10.616;2023-03-23T13:12:24;19.60;79.90
19561;DHT22;9927;47.792;10.616;2023-03-23T13:15:06;19.80;81.60
19561;DHT22;9927;47.792;10.616;2023-03-23T13:17:52;20.00;82.70
19561;DHT22;9927;47.792;10.616;2023-03-23T13:25:56;19.50;81.70
19561;DHT22;9927;47.792;10.616;2023-03-23T13:28:31;19.70;82.40
19561;DHT22;9927;47.792;10.616;2023-03-23T13:31:13;19.70;80.70
19561;DHT22;9927;47.792;10.616;2023-03-23T13:33:52;19.80;80.50
19561;DHT22;9927;47.792;10.616;2023-03-23T13:36:31;19.90;83.00
19561;DHT22;9927;47.792;10.616;2023-03-23T13:38:59;19.80;81.90
19561;DHT22;9927;47.792;10.616;2023-03-23T13:41:27;20.30;83.70
19561;DHT22;9927;47.792;10.616;2023-03-23T13:44:15;20.30;84.30
19561;DHT22;9927;47.792;10.616;2023-03-23T13:46:54;20.40;82.70
19561;DHT22;9927;47.792;10.616;2023-03-23T13:49:22;20.60;81.70
19561;DHT22;9927;47.792;10.616;2023-03-23T13:51:52;20.20;84.80
19561;DHT22;9927;47.792;10.616;2023-03-23T13:56:55;20.30;83.80
19561;DHT22;9927;47.792;10.616;2023-03-23T13:59:35;20.20;78.20
19561;DHT22;9927;47.792;10.616;2023-03-23T14:04:54;20.30;80.00
19561;DHT22;9927;47.792;10.616;2023-03-23T14:07:20;20.20;80.00
19561;DHT22;9927;47.792;10.616;2023-03-23T14:09:46;20.10;81.10
19561;DHT22;9927;47.792;10.616;2023-03-23T14:12:25;19.90;81.40
19561;DHT22;9927;47.792;10.616;2023-03-23T14:14:59;19.80;81.10
19561;DHT22;9927;47.792;10.616;2023-03-23T14:17:31;19.70;80.80
19561;DHT22;9927;47.792;10.616;2023-03-23T14:19:59;19.70;80.70
19561;DHT22;9927;47.792;10.616;2023-03-23T14:22:35;19.10;82.20
19561;DHT22;9927;47.792;10.616;2023-03-23T14:25:10;19.10;82.00
19561;DHT22;9927;47.792;10.616;2023-03-23T14:27:37;19.00;83.10
19561;DHT22;9927;47.792;10.616;2023-03-23T14:30:06;19.10;83.50
19561;DHT22;9927;47.792;10.616;2023-03-23T14:32:33;19.20;84.10
19561;DHT22;9927;47.792;10.616;2023-03-23T14:35:05;19.20;83.30
19561;DHT22;9927;47.792;10.616;2023-03-23T14:37:32;19.10;81.80
19561;DHT22;9927;47.792;10.616;2023-03-23T14:40:01;18.50;83.20
19561;DHT22;9927;47.792;10.616;2023-03-23T14:42:34;17.90;84.20
19561;DHT22;9927;47.792;10.616;2023-03-23T14:45:03;17.60;87.50
19561;DHT22;9927;47.792;10.616;2023-03-23T14:47:37;17.20;89.20
19561;DHT22;9927;47.792;10.616;2023-03-23T14:50:06;16.80;91.30
19561;DHT22;9927;47.792;10.616;2023-03-23T14:52:35;16.70;91.10
19561;DHT22;9927;47.792;10.616;2023-03-23T14:55:18;16.60;91.60
19561;DHT22;9927;47.792;10.616;2023-03-23T14:57:47;16.50;91.90
19561;DHT22;9927;47.792;10.616;2023-03-23T15:00:31;16.50;92.00
19561;DHT22;9927;47.792;10.616;2023-03-23T15:03:00;16.40;92.30
19561;DHT22;9927;47.792;10.616;2023-03-23T15:05:33;16.50;92.60
19561;DHT22;9927;47.792;10.616;2023-03-23T15:08:10;16.50;92.50
19561;DHT22;9927;47.792;10.616;2023-03-23T15:10:37;16.70;91.80
19561;DHT22;9927;47.792;10.616;2023-03-23T15:13:04;16.70;92.10
19561;DHT22;9927;47.792;10.616;2023-03-23T15:15:35;16.70;92.00
19561;DHT22;9927;47.792;10.616;2023-03-23T15:18:02;16.60;92.40
19561;DHT22;9927;47.792;10.616;2023-03-23T15:20:47;16.40;92.60
19561;DHT22;9927;47.792;10.616;2023-03-23T15:23:22;16.40;92.80
19561;DHT22;9927;47.792;10.616;2023-03-23T15:25:51;16.60;92.40
19561;DHT22;9927;47.792;10.616;2023-03-23T15:28:20;16.60;91.80
19561;DHT22;9927;47.792;10.616;2023-03-23T15:30:50;16.10;91.90
19561;DHT22;9927;47.792;10.616;2023-03-23T15:33:17;16.10;92.10
19561;DHT22;9927;47.792;10.616;2023-03-23T15:35:48;15.90;92.60
19561;DHT22;9927;47.792;10.616;2023-03-23T15:38:24;15.90;92.70
19561;DHT22;9927;47.792;10.616;2023-03-23T15:40:53;16.00;92.40
19561;DHT22;9927;47.792;10.616;2023-03-23T15:43:26;16.00;92.50
19561;DHT22;9927;47.792;10.616;2023-03-23T15:46:19;16.20;92.20
19561;DHT22;9927;47.792;10.616;2023-03-23T15:48:49;16.20;92.30
19561;DHT22;9927;47.792;10.616;2023-03-23T15:51:16;16.30;92.50
19561;DHT22;9927;47.792;10.616;2023-03-23T15:53:43;16.30;92.40
19561;DHT22;9927;47.792;10.616;2023-03-23T15:56:11;16.30;92.50
19561;DHT22;9927;47.792;10.616;2023-03-23T15:58:38;16.30;92.40
19561;DHT22;9927;47.792;10.616;2023-03-23T16:03:54;15.90;93.50
19561;DHT22;9927;47.792;10.616;2023-03-23T16:06:26;15.80;93.50
19561;DHT22;9927;47.792;10.616;2023-03-23T16:08:54;15.80;93.80
19561;DHT22;9927;47.792;10.616;2023-03-23T16:11:24;15.60;93.60
19561;DHT22;9927;47.792;10.616;2023-03-23T16:13:52;15.60;93.90
19561;DHT22;9927;47.792;10.616;2023-03-23T16:16:28;15.30;94.80
19561;DHT22;9927;47.792;10.616;2023-03-23T16:18:57;15.00;95.50
19561;DHT22;9927;47.792;10.616;2023-03-23T16:21:24;14.80;95.40
19561;DHT22;9927;47.792;10.616;2023-03-23T16:23:52;14.80;96.00
19561;DHT22;9927;47.792;10.616;2023-03-23T16:26:19;14.70;96.40
19561;DHT22;9927;47.792;10.616;2023-03-23T16:28:47;14.70;96.60
19561;DHT22;9927;47.792;10.616;2023-03-23T16:31:14;14.70;96.70
19561;DHT22;9927;47.792;10.616;2023-03-23T16:33:41;14.80;97.20
19561;DHT22;9927;47.792;10.616;2023-03-23T16:36:11;14.80;97.10
19561;DHT22;9927;47.792;10.616;2023-03-23T16:38:42;14.70;96.90
19561;DHT22;9927;47.792;10.616;2023-03-23T16:41:17;14.80;97.20
19561;DHT22;9927;47.792;10.616;2023-03-23T16:43:44;14.70;96.90
19561;DHT22;9927;47.792;10.616;2023-03-23T16:46:12;14.80;97.00
19561;DHT22;9927;47.792;10.616;2023-03-23T16:48:40;14.90;96.80
19561;DHT22;9927;47.792;10.616;2023-03-23T16:51:07;15.00;97.20
19561;DHT22;9927;47.792;10.616;2023-03-23T16:53:35;15.00;96.90
19561;DHT22;9927;47.792;10.616;2023-03-23T16:56:03;15.00;97.40
19561;DHT22;9927;47.792;10.616;2023-03-23T16:58:30;14.90;97.20
19561;DHT22;9927;47.792;10.616;2023-03-23T17:00:57;14.80;97.10
19561;DHT22;9927;47.792;10.616;2023-03-23T17:03:26;14.90;97.50
19561;DHT22;9927;47.792;10.616;2023-03-23T17:05:54;14.80;97.30
19561;DHT22;9927;47.792;10.616;2023-03-23T17:08:21;14.80;97.60
19561;DHT22;9927;47.792;10.616;2023-03-23T17:10:49;14.80;97.50
19561;DHT22;9927;47.792;10.616;2023-03-23T17:13:16;14.80;97.40
19561;DHT22;9927;47.792;10.616;2023-03-23T17:15:44;14.80;97.30
19561;DHT22;9927;47.792;10.616;2023-03-23T17:18:14;14.90;97.50
19561;DHT22;9927;47.792;10.616;2023-03-23T17:20:42;14.90;97.20
19561;DHT22;9927;47.792;10.616;2023-03-23T17:23:09;14.90;97.10
19561;DHT22;9927;47.792;10.616;2023-03-23T17:25:37;14.70;97.50
19561;DHT22;9927;47.792;10.616;2023-03-23T17:28:04;14.70;97.60
19561;DHT22;9927;47.792;10.616;2023-03-23T17:30:34;14.80;97.60
19561;DHT22;9927;47.792;10.616;2023-03-23T17:33:01;14.80;97.90
19561;DHT22;9927;47.792;10.616;2023-03-23T17:35:29;14.70;98.00
19561;DHT22;9927;47.792;10.616;2023-03-23T17:37:56;14.60;97.80
19561;DHT22;9927;47.792;10.616;2023-03-23T17:40:24;14.70;97.80
19561;DHT22;9927;47.792;10.616;2023-03-23T17:42:51;14.60;97.80
19561;DHT22;9927;47.792;10.616;2023-03-23T17:45:19;14.60;98.50
19561;DHT22;9927;47.792;10.616;2023-03-23T17:47:46;14.70;98.30
19561;DHT22;9927;47.792;10.616;2023-03-23T17:50:13;14.70;98.00
19561;DHT22;9927;47.792;10.616;2023-03-23T17:52:41;14.60;98.20
19561;DHT22;9927;47.792;10.616;2023-03-23T17:55:10;14.60;98.20
19561;DHT22;9927;47.792;10.616;2023-03-23T17:57:37;14.60;98.20
19561;DHT22;9927;47.792;10.616;2023-03-23T18:00:06;14.60;98.40
19561;DHT22;9927;47.792;10.616;2023-03-23T18:02:35;14.60;98.60
19561;DHT22;9927;47.792;10.616;2023-03-23T18:05:04;14.50;98.90
19561;DHT22;9927;47.792;10.616;2023-03-23T18:07:32;14.40;99.00
19561;DHT22;9927;47.792;10.616;2023-03-23T18:09:59;14.40;99.30
19561;DHT22;9927;47.792;10.616;2023-03-23T18:12:27;14.40;99.10
19561;DHT22;9927;47.792;10.616;2023-03-23T18:14:58;14.50;99.10
19561;DHT22;9927;47.792;10.616;2023-03-23T18:17:25;14.40;99.00
19561;DHT22;9927;47.792;10.616;2023-03-23T18:19:53;14.30;99.30
19561;DHT22;9927;47.792;10.616;2023-03-23T18:22:20;14.30;99.90
19561;DHT22;9927;47.792;10.616;2023-03-23T18:24:48;14.20;99.90
19561;DHT22;9927;47.792;10.616;2023-03-23T18:27:15;14.10;99.90
19561;DHT22;9927;47.792;10.616;2023-03-23T18:29:43;14.10;99.90
19561;DHT22;9927;47.792;10.616;2023-03-23T18:32:11;14.10;99.90
19561;DHT22;9927;47.792;10.616;2023-03-23T18:34:41;14.10;99.90
19561;DHT22;9927;47.792;10.616;2023-03-23T18:37:09;14.10;99.90
19561;DHT22;9927;47.792;10.616;2023-03-23T18:39:37;14.10;99.90
19561;DHT22;9927;47.792;10.616;2023-03-23T18:42:05;14.10;99.90
19561;DHT22;9927;47.792;10.616;2023-03-23T18:44:33;14.10;99.90
19561;DHT22;9927;47.792;10.616;2023-03-23T18:47:00;14.10;99.90
19561;DHT22;9927;47.792;10.616;2023-03-23T18:49:28;14.10;99.90
19561;DHT22;9927;47.792;10.616;2023-03-23T18:51:56;14.10;99.90
19561;DHT22;9927;47.792;10.616;2023-03-23T18:54:23;14.10;99.90
19561;DHT22;9927;47.792;10.616;2023-03-23T18:56:50;14.10;99.90
19561;DHT22;9927;47.792;10.616;2023-03-23T18:59:18;14.10;99.90
19561;DHT22;9927;47.792;10.616;2023-03-23T19:01:45;14.00;99.90
19561;DHT22;9927;47.792;10.616;2023-03-23T19:04:12;13.90;99.90
19561;DHT22;9927;47.792;10.616;2023-03-23T19:06:40;13.90;99.90
19561;DHT22;9927;47.792;10.616;2023-03-23T19:09:07;14.00;99.90
19561;DHT22;9927;47.792;10.616;2023-03-23T19:11:34;14.00;99.90
19561;DHT22;9927;47.792;10.616;2023-03-23T19:14:02;13.60;99.90
19561;DHT22;9927;47.792;10.616;2023-03-23T19:16:31;13.30;99.90
19561;DHT22;9927;47.792;10.616;2023-03-23T19:19:00;13.40;99.90
19561;DHT22;9927;47.792;10.616;2023-03-23T19:21:29;13.50;99.90
19561;DHT22;9927;47.792;10.616;2023-03-23T19:23:59;13.50;99.90
19561;DHT22;9927;47.792;10.616;2023-03-23T19:26:36;13.50;99.90
19561;DHT22;9927;47.792;10.616;2023-03-23T19:29:10;13.60;99.90
19561;DHT22;9927;47.792;10.616;2023-03-23T19:31:41;13.60;99.90
19561;DHT22;9927;47.792;10.616;2023-03-23T19:34:12;13.70;99.90
19561;DHT22;9927;47.792;10.616;2023-03-23T19:36:39;13.70;99.90
19561;DHT22;9927;47.792;10.616;2023-03-23T19:39:07;13.70;99.90
19561;DHT22;9927;47.792;10.616;2023-03-23T19:41:35;13.80;99.90
19561;DHT22;9927;47.792;10.616;2023-03-23T19:44:03;13.70;99.90
19561;DHT22;9927;47.792;10.616;2023-03-23T19:46:31;13.70;99.90
19561;DHT22;9927;47.792;10.616;2023-03-23T19:48:59;13.70;99.90
19561;DHT22;9927;47.792;10.616;2023-03-23T19:51:27;13.70;99.90
19561;DHT22;9927;47.792;10.616;2023-03-23T19:53:56;13.60;99.90
19561;DHT22;9927;47.792;10.616;2023-03-23T19:56:25;13.70;99.90
19561;DHT22;9927;47.792;10.616;2023-03-23T19:58:55;13.70;99.90
19561;DHT22;9927;47.792;10.616;2023-03-23T20:01:22;13.70;99.90
19561;DHT22;9927;47.792;10.616;2023-03-23T20:03:50;13.60;99.90
19561;DHT22;9927;47.792;10.616;2023-03-23T20:06:18;13.70;99.90
19561;DHT22;9927;47.792;10.616;2023-03-23T20:08:46;13.70;99.90
19561;DHT22;9927;47.792;10.616;2023-03-23T20:11:17;13.80;99.90
19561;DHT22;9927;47.792;10.616;2023-03-23T20:13:45;13.80;99.90
19561;DHT22;9927;47.792;10.616;2023-03-23T20:16:15;13.80;99.90
19561;DHT22;9927;47.792;10.616;2023-03-23T20:18:44;13.80;99.90
19561;DHT22;9927;47.792;10.616;2023-03-23T20:21:14;13.80;99.90
19561;DHT22;9927;47.792;10.616;2023-03-23T20:23:47;13.80;99.90
19561;DHT22;9927;47.792;10.616;2023-03-23T20:26:23;13.70;99.90
19561;DHT22;9927;47.792;10.616;2023-03-23T20:28:51;13.70;99.90
19561;DHT22;9927;47.792;10.616;2023-03-23T20:31:25;13.70;99.90
19561;DHT22;9927;47.792;10.616;2023-03-23T20:33:55;13.80;99.90
19561;DHT22;9927;47.792;10.616;2023-03-23T20:36:34;13.70;99.90
19561;DHT22;9927;47.792;10.616;2023-03-23T20:39:10;13.70;99.90
19561;DHT22;9927;47.792;10.616;2023-03-23T20:41:38;13.70;99.90
19561;DHT22;9927;47.792;10.616;2023-03-23T20:44:08;13.70;99.90
19561;DHT22;9927;47.792;10.616;2023-03-23T20:46:44;13.60;99.90
19561;DHT22;9927;47.792;10.616;2023-03-23T20:49:12;13.40;99.90
19561;DHT22;9927;47.792;10.616;2023-03-23T20:51:40;13.40;99.90
19561;DHT22;9927;47.792;10.616;2023-03-23T20:54:07;13.30;99.90
19561;DHT22;9927;47.792;10.616;2023-03-23T20:56:36;13.30;99.90
19561;DHT22;9927;47.792;10.616;2023-03-23T20:59:06;13.30;99.90
19561;DHT22;9927;47.792;10.616;2023-03-23T21:01:34;13.20;99.90
19561;DHT22;9927;47.792;10.616;2023-03-23T21:04:02;13.20;99.90
19561;DHT22;9927;47.792;10.616;2023-03-23T21:06:29;13.10;99.90
19561;DHT22;9927;47.792;10.616;2023-03-23T21:08:57;13.10;99.90